• Join FlightAware (Why Join?)
  • Login
  • US Flag 
08:00AM EDT


 

Airport Tracker/Info


-or-


 

Live Flight TrackerFlight Track Log ✈ GJS6252 ✈ 16-May-2013 ✈ KBTV - KLGA

Flight Track Log - Related Links

Times and Time Zones

All times are in EDT time to prevent confusion due to time zone crossing. See the GJS6252 flight status page for this flight to view local times or setup timezone preferences in your user account.

Time Position Orientation Groundspeed Altitude Reporting Facility
EDT Latitude Longitude Course Direction KTS MPH feet Rate Location/Type
06:13AM 44.2486 -73.1850 195° South 290 334 9,100  Level Boston Center
06:14AM 44.1711 -73.2186 197° South 295 339 11,400 2,040 Climbing Boston Center
06:15AM 44.0625 -73.2633 196° South 324 373 13,700 2,100 Climbing Boston Center
06:16AM 43.9159 -73.3603 196° South  Level FlightAware Approximate
06:16AM 43.9683 -73.3056 198° South 350 403 15,700  Level Boston Center
06:17AM 43.8240 -73.3953 195° South  Level FlightAware Approximate
06:18AM 43.7320 -73.4299 195° South  Level FlightAware Approximate
06:18AM 43.8578 -73.3500 196° South 373 429 18,400  Level Boston Center
06:19AM 43.7342 -73.4028 197° South 383 441 21,100 2,460 Climbing Boston Center
06:20AM 43.6192 -73.4467 195° South 374 430 23,900 2,040 Climbing Boston Center
06:21AM 43.5189 -73.4908 198° South 374 430 25,700 1,020 Climbing Boston Center
06:22AM 43.4144 -73.5292 195° South 381 438 26,000 120 Climbing Boston Center
06:23AM 43.3056 -73.5756 197° South 398 458 26,000  Level Boston Center
06:24AM 43.1925 -73.6219 197° South 414 476 26,000  Level Boston Center
06:25AM 43.0919 -73.6656 198° South 419 482 26,000 -60 Level Boston Center
06:26AM 42.9831 -73.7086 196° South 419 482 25,900 -600 Descending Boston Center
06:27AM 42.8722 -73.7547 197° South 419 482 24,800 -960 Descending Boston Center
06:28AM 42.7611 -73.7975 196° South 419 482 24,000 -600 Descending Boston Center
06:29AM 42.6425 -73.7864 176° South 412 474 23,600 -900 Descending Boston Center
06:30AM 42.5239 -73.7614 171° South 419 482 22,300 -780 Descending Boston Center
06:31AM 42.4075 -73.7364 171° South 424 488 21,900 -900 Descending Boston Center
06:32AM 42.2683 -73.7083 172° South 424 488 20,400 -1,320 Descending Boston Center
06:33AM 42.1622 -73.6808 169° South 418 481 19,300 -720 Descending Boston Center
06:34AM 42.0519 -73.6703 176° South 385 443 19,000 -180 Descending Boston Center
06:35AM 42.0158 -73.7367 234° Southwest 295 339 19,000 -360 Level Boston Center
06:36AM 41.9539 -73.8583 236° Southwest 304 350 18,300 -1,140 Descending Boston Center
06:37AM 41.8619 -73.8728 187° South 311 358 16,800 -1,500 Descending Boston Center
06:38AM 41.7642 -73.8650 177° South 329 379 15,300 -1,620 Descending Boston Center
06:39AM 41.6767 -73.8492 172° South 351 404 13,600 -1,800 Descending Boston Center
06:40AM 41.5667 -73.8333 174° South 344 396 11,600 -1,620 Descending New York TRACON
06:41AM 41.4833 -73.8167 171° South 318 366 10,400 -1,320 Descending New York TRACON
06:42AM 41.4000 -73.8167 180° South 291 335 9,200 -660 Descending New York TRACON
06:43AM 41.3167 -73.7833 163° South 306 352 9,100 -540 Descending New York TRACON
06:44AM 41.2500 -73.7167 143° Southeast 318 366 8,200 -1,140 Descending New York TRACON
06:45AM 41.1667 -73.6500 149° Southeast 300 345 6,800 -1,440 Descending New York TRACON
06:46AM 41.1000 -73.6333 169° South 290 334 5,300 -1,380 Descending New York TRACON
06:47AM 41.0333 -73.6667 201° Southwest 260 299 4,100 -780 Descending New York TRACON
06:48AM 40.9500 -73.7333 211° Southwest 264 304 3,700 -600 Descending New York TRACON
06:49AM 40.9000 -73.7667 207° Southwest 269 310 2,900 -1,200 Descending New York TRACON
06:50AM 40.8500 -73.8167 217° Southwest 229 264 1,500 -1,200 Descending New York TRACON
06:51AM 40.8167 -73.8500 217° Southwest 154 177 700 -900 Descending New York TRACON
06:53AM 40.7772 -73.8726 180° South  Level Estimated
07:00AM 40.7772 -73.8726 180° South  Level Estimated